Terminal Aerodrome Forecast
Issued by NWS

Home | Current Version | Previous Version | Graphics & Text | Print | Product List | Glossary On
Versions: 1 2 3 4 5 6 7 8 9 10 11 12 13 14 15 16 17 18 19 20 21 22 23 24 25 26 27 28 29
696
FTUS43 KGRB 131901 AAB
TAFMTW
TAF AMD
KMTW 131901Z 1319/1418 10020G28KT 1SM -SN SCT009 OVC012
      TEMPO 1319/1322 1/2SM SN OVC005
     FM132200 04018G26KT 1SM -SN SCT007 OVC015
     FM140000 01011G17KT 3SM -SN BKN025 OVC035
     FM140300 34007KT P6SM BKN035
     FM140600 31005KT P6SM SCT035
     FM141600 27005KT P6SM BKN035 BKN120=

USA.gov is the U.S. government's official web portal to all federal, state and local government web resources and services.